Mendon, MA (01756)

5:39 PM EST on January 30, 2015 (GMT -0500)
Lake Nipmuc | Change Station
CLOSE
Current Station
Personal Weather Station
Location: Mendon, MA
Elevation: 400 ft
Nearby Weather Stations
Active Advisory: Winter Storm Watch Active Notice: Public Information Statement

Elev 400 ft 42.09 °N, 71.57 °W | Updated 3 seconds ago

Snow
Snow
33.1 °F
Feels Like 33 °F
N
0.0
Wind Variable Wind from SW
Gusts 0.0 mph

Today
High -- | Low -- °F
--% Chance of Precip.
Yesterday
High -- | Low -- °F
Precip. -- in
7:01 AM 4:58 PM
Waxing Gibbous, 85% visible
Pressure 29.71 in
Visibility 8.0 miles
Clouds Scattered Clouds 2500 ft
Scattered Clouds 3200 ft
Mostly Cloudy 4200 ft
Windchill 33 °F
Dew Point 33 °F
Humidity 98%
Rainfall 0.00 in
Snow Depth Not available.
UV 0 out of 12
Pollen .10 out of 12
Air Quality Not available.
Flu Activity Not available.
METAR KSFZ 302235Z 30006KT 280V360 8SM SCT025 SCT032 BKN042 M01/M06 A2971 RMK AO1

More Conditions Fewer Conditions

Pressure 29.71 in
Visibility 8.0 miles
Clouds Scattered Clouds 2500 ft
Scattered Clouds 3200 ft
Mostly Cloudy 4200 ft
Windchill 33 °F
Dew Point 33 °F
Humidity 98%
Rainfall 0.00 in
Snow Depth Not available.
UV 0 out of 12
Pollen .10 out of 12
Air Quality Not available.
Flu Activity Not available.
METAR KSFZ 302235Z 30006KT 280V360 8SM SCT025 SCT032 BKN042 M01/M06 A2971 RMK AO1

More Conditions Fewer Conditions

10-Day Weather Forecast

Almanac

Astronomy

Jan. 30, 2015 Rise Set
Actual Time
Civil Twilight
Nautical Twilight
Astronomical Twilight
Moon
Length of Visible Light
Length of Day
Tomorrow will be .
, % of the Moon is Illuminated

Today's Extremes

State Highs State Lows

Community

WunderPhotos

Upload Photos

1,791,904 photos uploaded!

WunderBlogs® & News

Nearby

Air Quality

  Air Quality AQ Index Pollutant
Not available.

Snow Depth

Station Depth Elevation

Earthquake Activity

City Distance Mag. Time & Date
Minimum magnitude displayed is 2.5.

Coastal Water Temperatures

Place Temperature

Nearby Weather Stations